Time;durP1;ratioP1;P1;durP2;ratioP2;P2;SDS_P1;SDS_P2;PMS_P1;PMS_P2;Temp;Humidity;BMP_temperature;BMP_pressure;BME280_temperature;BME280_humidity;BME280_pressure;Samples;Min_cycle;Max_cycle;Signal;HPM_P1;HPM_P2
2023/08/25 00:02:15;;;;;;;1.90;1.80;;;24.70;52.50;;;;;;5018002;28;20476;-73
2023/08/25 00:04:42;;;;;;;1.80;1.70;;;24.70;52.40;;;;;;4997486;28;20222;-72
2023/08/25 00:07:07;;;;;;;2.40;1.67;;;24.70;52.50;;;;;;5014848;28;20460;-74
2023/08/25 00:09:33;;;;;;;1.80;1.70;;;24.70;52.40;;;;;;5015107;28;20435;-72
2023/08/25 00:11:58;;;;;;;1.63;1.50;;;24.70;52.40;;;;;;5014777;28;20241;-72
2023/08/25 00:14:24;;;;;;;1.33;1.23;;;24.70;52.40;;;;;;5013137;28;20244;-75
2023/08/25 00:16:50;;;;;;;1.60;1.50;;;24.70;52.50;;;;;;5014141;28;20321;-72
2023/08/25 00:19:17;;;;;;;2.50;1.80;;;24.70;52.50;;;;;;4998383;28;20210;-75
2023/08/25 00:21:43;;;;;;;1.60;1.50;;;24.70;52.50;;;;;;4997047;28;20625;-73
2023/08/25 00:24:08;;;;;;;1.93;1.63;;;24.70;52.40;;;;;;4996785;28;20593;-75
2023/08/25 00:26:34;;;;;;;3.13;1.80;;;24.70;52.40;;;;;;5013541;28;20241;-75
2023/08/25 00:28:59;;;;;;;1.60;1.50;;;24.70;52.30;;;;;;5017696;28;20309;-76
2023/08/25 00:31:25;;;;;;;2.00;1.90;;;24.70;52.30;;;;;;5014772;28;20807;-75
2023/08/25 00:33:51;;;;;;;2.60;1.70;;;24.70;52.30;;;;;;5016020;28;20233;-75
2023/08/25 00:36:16;;;;;;;1.73;1.40;;;24.70;52.30;;;;;;4996825;28;20363;-74
2023/08/25 00:38:42;;;;;;;1.73;1.63;;;24.70;52.30;;;;;;5014200;28;20242;-74
2023/08/25 00:41:08;;;;;;;1.80;1.70;;;24.70;52.30;;;;;;5012789;28;20233;-75
2023/08/25 00:43:34;;;;;;;3.17;2.00;;;24.70;52.30;;;;;;5013817;28;20233;-75
2023/08/25 00:46:01;;;;;;;2.23;1.90;;;24.60;52.30;;;;;;4996271;28;20223;-75
2023/08/25 00:48:27;;;;;;;2.20;1.97;;;24.60;52.30;;;;;;4997072;28;20552;-75
2023/08/25 00:50:54;;;;;;;1.80;1.70;;;24.60;52.30;;;;;;5013600;28;20543;-74
2023/08/25 00:53:22;;;;;;;2.20;2.03;;;24.60;52.20;;;;;;5016427;28;21235;-74
2023/08/25 00:55:48;;;;;;;1.77;1.67;;;24.60;52.30;;;;;;5013449;28;20483;-75
2023/08/25 00:58:16;;;;;;;2.00;1.80;;;24.60;52.20;;;;;;5014977;28;20474;-75
2023/08/25 01:00:44;;;;;;;2.10;1.47;;;24.60;52.30;;;;;;5013741;28;21026;-75
2023/08/25 01:03:10;;;;;;;1.93;1.60;;;24.60;52.20;;;;;;5012181;28;20460;-75
2023/08/25 01:05:39;;;;;;;3.83;1.60;;;24.60;52.20;;;;;;4995253;28;20484;-75
2023/08/25 01:08:05;;;;;;;1.80;1.70;;;24.60;52.20;;;;;;5014256;28;20456;-75
2023/08/25 01:10:59;;;;;;;1.60;1.50;;;24.60;52.20;;;;;;5012934;28;20463;-75
2023/08/25 01:13:54;;;;;;;2.53;1.60;;;24.60;52.20;;;;;;5010559;28;20341;-75
2023/08/25 01:16:28;;;;;;;2.17;1.80;;;24.60;52.20;;;;;;4995197;28;20460;-75
2023/08/25 01:18:56;;;;;;;1.73;1.50;;;24.60;52.20;;;;;;5014635;28;20983;-75
2023/08/25 01:21:22;;;;;;;2.33;2.10;;;24.60;52.20;;;;;;5015253;28;20459;-75
2023/08/25 01:24:08;;;;;;;1.80;1.70;;;24.60;52.20;;;;;;5011081;28;20470;-75
2023/08/25 01:26:34;;;;;;;1.93;1.83;;;24.60;52.20;;;;;;5014533;28;20535;-74
2023/08/25 01:28:59;;;;;;;1.87;1.77;;;24.60;52.10;;;;;;4998774;28;21002;-75
2023/08/25 01:31:25;;;;;;;1.70;1.60;;;24.60;52.20;;;;;;5009217;28;20218;-76
2023/08/25 01:33:53;;;;;;;2.03;1.83;;;24.60;52.20;;;;;;5015754;28;20238;-74
2023/08/25 01:36:42;;;;;;;1.80;1.70;;;24.60;52.20;;;;;;5014100;28;20238;-75
2023/08/25 01:39:10;;;;;;;1.50;1.40;;;24.60;52.10;;;;;;5012836;28;20460;-74
2023/08/25 01:41:42;;;;;;;1.90;1.80;;;24.60;52.10;;;;;;4998029;28;20463;-75
2023/08/25 01:44:09;;;;;;;2.60;1.63;;;24.60;52.10;;;;;;5012123;28;20559;-75
2023/08/25 01:46:37;;;;;;;1.77;1.67;;;24.60;52.10;;;;;;5013852;28;20461;-75
2023/08/25 01:49:04;;;;;;;1.90;1.80;;;24.60;52.20;;;;;;5014393;28;20472;-75
2023/08/25 01:51:30;;;;;;;1.90;1.80;;;24.60;52.10;;;;;;5013332;28;20468;-75
2023/08/25 01:53:56;;;;;;;2.13;1.53;;;24.60;52.20;;;;;;5013994;28;21014;-75
2023/08/25 01:56:23;;;;;;;1.70;1.60;;;24.60;52.20;;;;;;4997184;28;20678;-75
2023/08/25 01:58:51;;;;;;;1.70;1.60;;;24.60;52.20;;;;;;5017473;28;20822;-75
2023/08/25 02:01:17;;;;;;;1.50;1.40;;;24.60;52.30;;;;;;4994579;28;20461;-75
2023/08/25 02:03:43;;;;;;;1.90;1.80;;;24.60;52.30;;;;;;5013229;28;20486;-76
2023/08/25 02:06:09;;;;;;;1.37;1.27;;;24.60;52.20;;;;;;5015415;28;20745;-76
2023/08/25 02:08:35;;;;;;;1.60;1.50;;;24.60;52.20;;;;;;5014068;28;20225;-75
2023/08/25 02:11:01;;;;;;;1.97;1.70;;;24.60;52.20;;;;;;4996803;28;20455;-75
2023/08/25 02:13:26;;;;;;;1.60;1.50;;;24.60;52.20;;;;;;5008340;28;20222;-75
2023/08/25 02:15:53;;;;;;;1.87;1.77;;;24.60;52.20;;;;;;5014284;28;20254;-76
2023/08/25 02:18:19;;;;;;;1.60;1.50;;;24.60;52.20;;;;;;5015099;28;20242;-75
2023/08/25 02:20:44;;;;;;;1.83;1.73;;;24.60;52.30;;;;;;5018077;28;20471;-75
2023/08/25 02:23:10;;;;;;;1.73;1.63;;;24.60;52.30;;;;;;4998247;28;20242;-75
2023/08/25 02:25:36;;;;;;;1.40;1.30;;;24.60;52.30;;;;;;5020294;28;20238;-75
2023/08/25 02:28:01;;;;;;;2.33;2.20;;;24.60;52.30;;;;;;5016656;28;20222;-76
2023/08/25 02:30:27;;;;;;;1.60;1.50;;;24.60;52.30;;;;;;5018698;28;20357;-75
2023/08/25 02:32:54;;;;;;;2.57;1.60;;;24.60;52.30;;;;;;5017588;28;20455;-75
2023/08/25 02:35:21;;;;;;;1.60;1.50;;;24.60;52.30;;;;;;5019563;28;20237;-75
2023/08/25 02:37:58;;;;;;;2.13;1.63;;;24.60;52.30;;;;;;4994421;28;21055;-74
2023/08/25 02:40:24;;;;;;;1.90;1.80;;;24.60;52.30;;;;;;5019104;28;20459;-76
2023/08/25 02:42:50;;;;;;;1.70;1.60;;;24.60;52.30;;;;;;5018406;28;21132;-75
2023/08/25 02:45:16;;;;;;;1.70;1.60;;;24.50;52.30;;;;;;5017194;28;20455;-73
2023/08/25 02:47:41;;;;;;;1.90;1.80;;;24.50;52.30;;;;;;5018007;28;20230;-74
2023/08/25 02:50:07;;;;;;;1.60;1.50;;;24.50;52.30;;;;;;4998606;28;20229;-72
2023/08/25 02:52:32;;;;;;;1.90;1.80;;;24.60;52.30;;;;;;4996559;28;20235;-73
2023/08/25 02:54:58;;;;;;;1.63;1.53;;;24.50;52.40;;;;;;4998951;28;20226;-71
2023/08/25 02:57:23;;;;;;;1.60;1.50;;;24.50;52.30;;;;;;5015833;28;20222;-73
2023/08/25 02:59:49;;;;;;;1.67;1.57;;;24.50;52.40;;;;;;5001726;28;20223;-72
2023/08/25 03:02:14;;;;;;;1.80;1.70;;;24.50;52.30;;;;;;5019399;28;20686;-72
2023/08/25 03:04:40;;;;;;;2.20;2.00;;;24.50;52.40;;;;;;5018370;28;20584;-73
2023/08/25 03:07:05;;;;;;;1.77;1.67;;;24.50;52.40;;;;;;5015533;28;20227;-73
2023/08/25 03:09:31;;;;;;;1.80;1.70;;;24.50;52.30;;;;;;5017276;28;20526;-72
2023/08/25 03:11:56;;;;;;;2.53;2.00;;;24.50;52.20;;;;;;5015149;28;20701;-71
2023/08/25 03:14:26;;;;;;;2.13;2.03;;;24.50;52.70;;;;;;5015312;28;20320;-75
2023/08/25 03:16:52;;;;;;;1.63;1.53;;;24.50;52.20;;;;;;5018147;28;20257;-74
2023/08/25 03:19:17;;;;;;;1.40;1.30;;;24.50;52.30;;;;;;5019773;28;20558;-74
2023/08/25 03:21:43;;;;;;;1.87;1.50;;;24.50;52.30;;;;;;4998266;28;20230;-74
2023/08/25 03:24:08;;;;;;;1.70;1.60;;;24.50;52.20;;;;;;5017761;28;20847;-75
2023/08/25 03:26:34;;;;;;;1.70;1.60;;;24.50;52.20;;;;;;5018294;28;20265;-74
2023/08/25 03:28:59;;;;;;;1.50;1.40;;;24.50;52.20;;;;;;5017670;28;20241;-74
2023/08/25 03:31:25;;;;;;;1.67;1.57;;;24.50;52.30;;;;;;5012847;28;20222;-74
2023/08/25 03:33:50;;;;;;;1.77;1.67;;;24.50;52.40;;;;;;4999258;28;20234;-75
2023/08/25 03:36:16;;;;;;;1.70;1.60;;;24.50;52.30;;;;;;4997991;28;20210;-74
2023/08/25 03:38:42;;;;;;;1.90;1.80;;;24.50;52.40;;;;;;5015519;28;21349;-74
2023/08/25 03:41:07;;;;;;;1.80;1.70;;;24.50;52.40;;;;;;5014247;28;20225;-74
2023/08/25 03:43:35;;;;;;;1.80;1.70;;;24.50;52.40;;;;;;5014942;28;20218;-75
2023/08/25 03:46:01;;;;;;;1.83;1.73;;;24.50;52.40;;;;;;5000846;28;20318;-75
2023/08/25 03:48:26;;;;;;;1.97;1.87;;;24.50;52.40;;;;;;5017645;28;20758;-74
2023/08/25 03:50:52;;;;;;;1.90;1.80;;;24.50;52.50;;;;;;4997163;28;20963;-74
2023/08/25 03:53:18;;;;;;;1.70;1.60;;;24.50;52.50;;;;;;4998497;28;20233;-75
2023/08/25 03:55:43;;;;;;;2.20;2.10;;;24.50;52.50;;;;;;4998312;28;20230;-74
2023/08/25 03:58:10;;;;;;;2.20;2.00;;;24.50;52.50;;;;;;5018065;28;20229;-74
2023/08/25 04:00:36;;;;;;;2.33;1.90;;;24.50;52.50;;;;;;4998221;28;20245;-74
2023/08/25 04:03:03;;;;;;;1.73;1.63;;;24.50;52.50;;;;;;4995285;28;20825;-74
2023/08/25 04:05:29;;;;;;;1.77;1.67;;;24.50;52.50;;;;;;4997963;28;20233;-74
2023/08/25 04:07:56;;;;;;;1.80;1.70;;;24.50;52.50;;;;;;5012536;28;20463;-74
2023/08/25 04:10:22;;;;;;;2.00;1.90;;;24.50;52.50;;;;;;5004985;28;20265;-74
2023/08/25 04:12:48;;;;;;;2.00;1.90;;;24.50;52.50;;;;;;4996642;28;20967;-74
2023/08/25 04:15:14;;;;;;;1.93;1.70;;;24.50;52.50;;;;;;4995244;28;20521;-76
2023/08/25 04:17:39;;;;;;;1.87;1.77;;;24.50;52.50;;;;;;4995312;28;20229;-75
2023/08/25 04:20:05;;;;;;;2.17;2.03;;;24.50;52.50;;;;;;5015643;28;20313;-75
2023/08/25 04:22:31;;;;;;;3.43;2.40;;;24.50;52.50;;;;;;5015266;28;20219;-75
2023/08/25 04:24:56;;;;;;;2.17;2.07;;;24.50;52.40;;;;;;5014420;28;20515;-75
2023/08/25 04:27:22;;;;;;;2.37;2.27;;;24.50;52.40;;;;;;5014625;28;20269;-73
2023/08/25 04:29:48;;;;;;;2.67;2.50;;;24.50;52.30;;;;;;5017694;28;20250;-73
2023/08/25 04:32:15;;;;;;;2.00;1.90;;;24.50;52.30;;;;;;5014424;28;20237;-74
2023/08/25 04:34:41;;;;;;;3.10;2.30;;;24.50;52.30;;;;;;4997558;28;20490;-75
2023/08/25 04:37:06;;;;;;;1.90;1.80;;;24.50;52.30;;;;;;5014224;28;20815;-76
2023/08/25 04:39:32;;;;;;;2.40;2.30;;;24.50;52.20;;;;;;5013981;28;20227;-73
2023/08/25 04:41:57;;;;;;;2.20;2.10;;;24.50;52.30;;;;;;5016345;28;20218;-72
2023/08/25 04:44:23;;;;;;;2.13;2.00;;;24.50;52.20;;;;;;5013869;28;20232;-72
2023/08/25 04:46:49;;;;;;;2.10;2.00;;;24.50;52.20;;;;;;5011457;28;20316;-72
2023/08/25 04:49:15;;;;;;;3.33;1.90;;;24.50;52.20;;;;;;4999333;28;20218;-73
2023/08/25 04:51:40;;;;;;;2.37;2.17;;;24.50;52.20;;;;;;5013643;28;20229;-72
2023/08/25 04:54:06;;;;;;;2.07;1.97;;;24.50;52.20;;;;;;5013985;28;20475;-72
2023/08/25 04:56:31;;;;;;;2.50;2.30;;;24.50;52.20;;;;;;5014967;28;20710;-72
2023/08/25 04:58:57;;;;;;;2.67;2.00;;;24.50;52.20;;;;;;5015918;28;20241;-72
2023/08/25 05:01:22;;;;;;;3.17;2.30;;;24.50;52.20;;;;;;5010592;28;20226;-72
2023/08/25 05:03:48;;;;;;;2.57;2.37;;;24.50;53.00;;;;;;5014134;28;20222;-72
2023/08/25 05:06:14;;;;;;;2.20;2.00;;;24.50;52.20;;;;;;5015572;28;20285;-73
2023/08/25 05:08:40;;;;;;;2.33;2.13;;;24.50;52.20;;;;;;5013715;28;20226;-72
2023/08/25 05:11:06;;;;;;;2.53;2.30;;;24.50;52.20;;;;;;5011991;28;20231;-72
2023/08/25 05:13:31;;;;;;;2.40;2.00;;;24.50;52.20;;;;;;4996659;28;20229;-70
2023/08/25 05:15:57;;;;;;;2.23;2.07;;;24.50;52.20;;;;;;5012571;28;20706;-72
2023/08/25 05:18:24;;;;;;;2.33;2.23;;;24.50;52.20;;;;;;5010537;28;20284;-71
2023/08/25 05:20:50;;;;;;;2.57;2.37;;;24.50;52.20;;;;;;5009850;28;20260;-73
2023/08/25 05:23:16;;;;;;;2.43;2.20;;;24.50;52.30;;;;;;5012711;28;20471;-73
2023/08/25 05:25:41;;;;;;;2.60;2.40;;;24.50;52.20;;;;;;5011849;28;20238;-72
2023/08/25 05:28:07;;;;;;;2.10;2.00;;;24.50;52.20;;;;;;5010961;28;21327;-72
2023/08/25 05:30:32;;;;;;;2.30;2.20;;;24.50;52.20;;;;;;5010129;28;20222;-72
2023/08/25 05:32:58;;;;;;;2.63;2.20;;;24.50;52.20;;;;;;5012692;28;20229;-73
2023/08/25 05:35:23;;;;;;;2.20;2.00;;;24.50;52.20;;;;;;5008294;28;20238;-72
2023/08/25 05:37:50;;;;;;;4.40;2.50;;;24.50;52.20;;;;;;5002226;28;20340;-72
2023/08/25 05:40:16;;;;;;;3.10;2.50;;;24.50;52.20;;;;;;5010520;28;20226;-72
2023/08/25 05:42:42;;;;;;;2.53;2.33;;;24.50;52.30;;;;;;5008572;28;20567;-72
2023/08/25 05:45:08;;;;;;;2.50;2.40;;;24.50;52.20;;;;;;5010991;28;20471;-73
2023/08/25 05:47:33;;;;;;;3.10;2.50;;;24.50;52.20;;;;;;5013594;28;20602;-72
2023/08/25 05:49:59;;;;;;;2.07;1.97;;;24.50;52.20;;;;;;5013553;28;20491;-71
2023/08/25 05:52:24;;;;;;;2.47;2.27;;;24.50;52.20;;;;;;5012180;28;20238;-72
2023/08/25 05:54:50;;;;;;;3.40;2.47;;;24.50;52.10;;;;;;5012729;28;20257;-72
2023/08/25 05:57:16;;;;;;;2.30;2.10;;;24.40;52.00;;;;;;5013785;28;20577;-71
2023/08/25 05:59:41;;;;;;;2.53;2.43;;;24.40;52.10;;;;;;5017387;28;20268;-72
2023/08/25 06:02:07;;;;;;;2.80;2.60;;;24.40;52.00;;;;;;4998681;28;20227;-71
2023/08/25 06:04:32;;;;;;;2.40;2.30;;;24.50;52.20;;;;;;5019662;28;20226;-72
2023/08/25 06:06:58;;;;;;;2.50;2.40;;;24.50;52.20;;;;;;5016342;28;20229;-71
2023/08/25 06:09:23;;;;;;;2.90;2.70;;;24.50;52.20;;;;;;5018473;28;20624;-73
2023/08/25 06:11:49;;;;;;;2.53;2.33;;;24.40;52.10;;;;;;5015996;28;20693;-72
2023/08/25 06:14:15;;;;;;;2.70;2.50;;;24.50;52.10;;;;;;5017394;28;20784;-74
2023/08/25 06:16:44;;;;;;;2.30;2.20;;;24.40;52.00;;;;;;5015616;28;20587;-74
2023/08/25 06:19:10;;;;;;;2.40;2.30;;;24.40;52.10;;;;;;4997744;28;20287;-73
2023/08/25 06:21:35;;;;;;;2.47;2.37;;;24.40;52.10;;;;;;5016316;28;20455;-74
2023/08/25 06:24:01;;;;;;;3.87;2.50;;;24.40;52.10;;;;;;5013580;28;20233;-74
2023/08/25 06:26:26;;;;;;;2.60;2.40;;;24.50;52.20;;;;;;5011374;28;20751;-73
2023/08/25 06:28:53;;;;;;;2.57;2.40;;;24.40;52.10;;;;;;5017685;28;20214;-74
2023/08/25 06:31:18;;;;;;;2.13;2.03;;;24.40;52.10;;;;;;5016215;28;20218;-74
2023/08/25 06:33:45;;;;;;;2.67;2.50;;;24.40;52.10;;;;;;5018458;28;20491;-74
2023/08/25 06:36:10;;;;;;;3.10;2.70;;;24.40;52.10;;;;;;5013484;28;20233;-74
2023/08/25 06:38:36;;;;;;;2.37;2.27;;;24.40;52.10;;;;;;5018271;28;20452;-74
2023/08/25 06:41:03;;;;;;;2.10;2.00;;;24.40;52.10;;;;;;5001889;28;20242;-74
2023/08/25 06:43:28;;;;;;;2.20;2.10;;;24.40;52.10;;;;;;5019824;28;20249;-73
2023/08/25 06:45:54;;;;;;;2.47;2.37;;;24.40;52.10;;;;;;5010554;28;20546;-71
2023/08/25 06:48:20;;;;;;;2.03;1.93;;;24.40;52.10;;;;;;4997649;28;20218;-71
2023/08/25 06:50:45;;;;;;;3.00;2.33;;;24.40;53.00;;;;;;5012445;28;20230;-72
2023/08/25 06:53:11;;;;;;;2.70;2.50;;;24.50;52.30;;;;;;5015140;28;20222;-71
2023/08/25 06:55:36;;;;;;;2.40;2.30;;;24.40;52.20;;;;;;5016982;28;20257;-71
2023/08/25 06:58:02;;;;;;;3.20;2.33;;;24.40;52.20;;;;;;5014663;28;20280;-71
2023/08/25 07:00:29;;;;;;;3.50;3.13;;;24.40;52.30;;;;;;5013430;28;20237;-71
2023/08/25 07:02:54;;;;;;;2.77;2.60;;;24.40;52.30;;;;;;5010595;28;20483;-72
2023/08/25 07:05:20;;;;;;;2.60;2.40;;;24.40;52.40;;;;;;5012416;28;20472;-72
2023/08/25 07:07:46;;;;;;;2.30;2.20;;;24.40;52.40;;;;;;5014152;28;20242;-72
2023/08/25 07:10:15;;;;;;;2.20;2.10;;;24.40;52.50;;;;;;4996807;28;20222;-71
2023/08/25 07:12:41;;;;;;;2.87;2.23;;;24.40;52.50;;;;;;5012493;28;20475;-72
2023/08/25 07:15:10;;;;;;;2.43;2.23;;;24.40;52.50;;;;;;5014677;28;20566;-72
2023/08/25 07:17:36;;;;;;;2.50;2.30;;;24.40;52.60;;;;;;5010717;28;20265;-70
2023/08/25 07:20:04;;;;;;;2.10;1.80;;;24.40;52.60;;;;;;5009315;28;20530;-71
2023/08/25 07:22:30;;;;;;;2.50;2.40;;;24.40;52.60;;;;;;4987811;28;20808;-70
2023/08/25 07:37:32;;;;;;;2.40;2.20;;;24.50;52.40;;;;;;5020476;27;20580;-63
2023/08/25 07:39:58;;;;;;;2.67;2.47;;;25.00;51.50;;;;;;5020897;28;21212;-67
2023/08/25 07:42:23;;;;;;;2.87;2.67;;;24.90;51.80;;;;;;4998861;28;20225;-66
2023/08/25 07:44:50;;;;;;;2.70;2.50;;;24.80;52.10;;;;;;5009841;28;20595;-64
2023/08/25 07:47:16;;;;;;;2.13;2.03;;;24.70;52.20;;;;;;5006213;28;20236;-63
2023/08/25 07:49:41;;;;;;;2.90;2.20;;;24.70;52.40;;;;;;5008283;28;20852;-63
2023/08/25 07:52:07;;;;;;;2.70;2.50;;;24.70;52.50;;;;;;5009676;28;20735;-63
2023/08/25 07:54:32;;;;;;;2.87;2.33;;;24.60;52.50;;;;;;5013787;28;20182;-63
2023/08/25 07:56:58;;;;;;;2.40;2.30;;;24.60;52.50;;;;;;5015758;28;20287;-63
2023/08/25 07:59:24;;;;;;;2.53;2.23;;;24.60;52.60;;;;;;5013777;28;20226;-65
2023/08/25 08:01:50;;;;;;;2.30;2.10;;;24.50;52.50;;;;;;5011709;28;20211;-64
2023/08/25 08:04:16;;;;;;;2.20;2.10;;;24.50;52.60;;;;;;5012538;28;20230;-62
2023/08/25 08:06:41;;;;;;;2.10;2.00;;;24.50;52.60;;;;;;5010302;28;20522;-65
2023/08/25 08:09:07;;;;;;;2.00;1.90;;;24.50;52.60;;;;;;5011764;28;20230;-65
2023/08/25 08:11:36;;;;;;;2.47;2.37;;;24.50;52.60;;;;;;5010582;28;20195;-63
2023/08/25 08:14:02;;;;;;;2.27;2.17;;;24.50;52.70;;;;;;5010128;28;20202;-66
2023/08/25 08:16:29;;;;;;;2.27;2.17;;;24.50;52.70;;;;;;5000150;28;20491;-63
2023/08/25 08:18:55;;;;;;;2.30;2.20;;;24.50;52.70;;;;;;5006401;28;20808;-66
2023/08/25 08:21:21;;;;;;;2.20;2.00;;;24.50;52.80;;;;;;5021321;27;20455;-66
2023/08/25 08:23:46;;;;;;;3.33;3.13;;;24.50;52.70;;;;;;5018222;28;20226;-65
2023/08/25 08:26:13;;;;;;;4.13;2.30;;;24.50;52.80;;;;;;5005216;28;20674;-64
2023/08/25 08:28:38;;;;;;;2.67;2.47;;;24.50;52.80;;;;;;5017263;28;20694;-65
2023/08/25 08:31:05;;;;;;;2.50;2.30;;;24.50;52.80;;;;;;5019498;28;20467;-68
2023/08/25 08:33:32;;;;;;;2.10;2.00;;;24.50;52.80;;;;;;5015667;28;20996;-68
2023/08/25 08:35:58;;;;;;;2.33;2.00;;;24.50;52.80;;;;;;4999080;28;20609;-67
2023/08/25 08:38:23;;;;;;;2.33;2.23;;;24.50;52.90;;;;;;5000354;28;20463;-68
2023/08/25 08:40:49;;;;;;;2.70;2.10;;;24.50;53.00;;;;;;5001388;28;20242;-67
2023/08/25 08:43:17;;;;;;;2.63;2.20;;;24.50;53.00;;;;;;4996693;28;20227;-66
2023/08/25 08:45:44;;;;;;;2.73;2.20;;;24.50;53.00;;;;;;4994451;28;20474;-65
2023/08/25 08:48:12;;;;;;;2.00;1.90;;;24.50;53.00;;;;;;5003323;28;20591;-68
2023/08/25 08:50:41;;;;;;;2.40;2.20;;;24.50;53.00;;;;;;4986238;28;20453;-65
2023/08/25 08:53:08;;;;;;;3.20;2.00;;;24.50;53.00;;;;;;5001472;28;20823;-68
2023/08/25 08:55:35;;;;;;;2.70;1.93;;;24.50;53.00;;;;;;5006331;28;20455;-65
2023/08/25 08:58:00;;;;;;;2.27;2.07;;;24.50;53.00;;;;;;5009030;28;20480;-65
2023/08/25 09:00:27;;;;;;;4.03;2.33;;;24.50;53.00;;;;;;5008988;28;20964;-67
2023/08/25 09:02:56;;;;;;;2.10;2.00;;;24.50;53.10;;;;;;5002579;28;20250;-68
2023/08/25 09:05:27;;;;;;;2.50;2.00;;;24.50;53.10;;;;;;4987522;28;20689;-67
2023/08/25 09:07:59;;;;;;;2.33;2.23;;;24.50;53.80;;;;;;5000463;28;20459;-65
2023/08/25 09:10:26;;;;;;;2.40;2.17;;;24.50;53.00;;;;;;4991811;28;20472;-69
2023/08/25 09:12:52;;;;;;;2.17;2.07;;;24.50;53.10;;;;;;4988890;28;20476;-67
2023/08/25 09:15:29;;;;;;;2.50;2.17;;;24.50;53.10;;;;;;4997167;28;20460;-67
2023/08/25 09:18:08;;;;;;;2.60;2.07;;;24.40;52.90;;;;;;4996222;28;20264;-66
2023/08/25 09:20:38;;;;;;;2.30;2.10;;;24.40;52.90;;;;;;5007023;28;20471;-66
2023/08/25 09:23:04;;;;;;;2.47;2.20;;;24.40;53.00;;;;;;5000237;28;20453;-66
2023/08/25 09:25:32;;;;;;;2.33;2.23;;;24.40;53.00;;;;;;4988178;28;20469;-66
2023/08/25 09:27:59;;;;;;;3.40;2.70;;;24.40;53.00;;;;;;4981529;28;20970;-66
2023/08/25 09:30:42;;;;;;;2.10;2.00;;;24.50;53.10;;;;;;5004647;28;21055;-65
2023/08/25 09:33:18;;;;;;;3.07;2.30;;;24.40;53.00;;;;;;5002866;28;21027;-64
2023/08/25 09:35:44;;;;;;;2.33;2.17;;;24.40;53.10;;;;;;4987720;28;20575;-66
2023/08/25 09:38:22;;;;;;;2.30;2.20;;;24.40;53.10;;;;;;5007715;28;20482;-67
2023/08/25 09:40:48;;;;;;;2.30;2.20;;;24.40;53.10;;;;;;4988712;28;20502;-66
2023/08/25 09:43:14;;;;;;;2.20;2.00;;;24.40;53.10;;;;;;4994015;28;20464;-65
2023/08/25 09:45:40;;;;;;;2.60;2.50;;;24.40;53.10;;;;;;5006506;28;20248;-65
2023/08/25 09:48:11;;;;;;;4.33;2.90;;;24.40;53.10;;;;;;5000011;28;20730;-65
2023/08/25 09:50:41;;;;;;;2.37;2.17;;;24.40;53.10;;;;;;4994869;28;20452;-63
2023/08/25 09:53:09;;;;;;;2.53;2.33;;;24.40;53.10;;;;;;4993482;28;21606;-65
2023/08/25 09:55:37;;;;;;;2.80;2.60;;;24.40;53.10;;;;;;4992291;28;20465;-66
2023/08/25 09:58:06;;;;;;;2.30;2.00;;;24.40;53.10;;;;;;5022116;28;21061;-63
2023/08/25 10:00:39;;;;;;;3.33;2.60;;;24.40;53.20;;;;;;4993408;28;20455;-64
2023/08/25 10:03:09;;;;;;;2.63;2.50;;;24.50;53.20;;;;;;5006280;28;20538;-63
2023/08/25 10:05:36;;;;;;;2.67;2.47;;;24.40;53.10;;;;;;5005882;28;20477;-65
2023/08/25 10:08:02;;;;;;;2.20;2.10;;;24.40;53.10;;;;;;5001563;28;20444;-62
2023/08/25 10:10:33;;;;;;;4.30;2.57;;;24.40;53.10;;;;;;4999265;28;20491;-65
2023/08/25 10:13:01;;;;;;;2.60;2.40;;;24.50;53.20;;;;;;5004296;28;20229;-64
2023/08/25 10:15:30;;;;;;;2.67;2.43;;;24.40;52.70;;;;;;5005202;28;20543;-64
2023/08/25 10:18:06;;;;;;;2.60;2.40;;;24.40;53.10;;;;;;5004562;28;21303;-64
2023/08/25 10:20:35;;;;;;;2.13;2.03;;;24.40;53.10;;;;;;4987467;28;20707;-65
2023/08/25 10:23:04;;;;;;;2.20;2.10;;;24.40;53.10;;;;;;5003428;28;20470;-66
2023/08/25 10:25:30;;;;;;;2.90;2.30;;;24.40;53.10;;;;;;5003644;28;20516;-64
2023/08/25 10:27:58;;;;;;;4.13;2.07;;;24.40;53.10;;;;;;5004744;28;20456;-63
2023/08/25 10:30:24;;;;;;;2.50;2.33;;;24.40;53.10;;;;;;5005738;28;20464;-64
2023/08/25 10:33:08;;;;;;;2.27;2.17;;;24.40;53.10;;;;;;5002490;28;20456;-63
2023/08/25 10:35:48;;;;;;;2.10;2.00;;;24.50;53.20;;;;;;5005419;28;20531;-63
2023/08/25 10:38:20;;;;;;;2.47;2.27;;;24.40;53.10;;;;;;5004354;28;20453;-64
2023/08/25 10:40:53;;;;;;;2.20;2.10;;;24.40;53.10;;;;;;4994802;28;20592;-65
2023/08/25 10:43:25;;;;;;;2.47;2.27;;;24.40;53.10;;;;;;4997380;28;21094;-64
2023/08/25 10:45:52;;;;;;;2.87;2.67;;;24.40;53.00;;;;;;4981337;28;20499;-63
2023/08/25 10:48:20;;;;;;;2.77;2.40;;;24.40;53.10;;;;;;4993674;28;20916;-64
2023/08/25 10:50:47;;;;;;;2.30;2.20;;;24.40;53.00;;;;;;5002381;28;20464;-64
2023/08/25 10:53:38;;;;;;;2.50;2.30;;;24.40;53.00;;;;;;4995206;28;20470;-64
2023/08/25 10:56:21;;;;;;;2.57;2.37;;;24.40;53.00;;;;;;5006206;28;20486;-65
2023/08/25 10:59:04;;;;;;;2.60;2.40;;;24.40;53.00;;;;;;5002480;28;20478;-66
2023/08/25 11:01:36;;;;;;;2.40;2.30;;;24.40;53.10;;;;;;4984883;28;20468;-66
2023/08/25 11:04:19;;;;;;;3.43;2.50;;;24.40;53.10;;;;;;5004281;28;20424;-63
2023/08/25 11:06:49;;;;;;;2.97;2.77;;;24.40;53.00;;;;;;4995347;28;20562;-66
2023/08/25 11:09:17;;;;;;;2.00;1.90;;;24.40;53.00;;;;;;4991858;28;20513;-64
2023/08/25 11:11:45;;;;;;;3.70;2.40;;;24.50;53.20;;;;;;4984722;28;21173;-62
2023/08/25 11:14:13;;;;;;;2.40;2.20;;;24.40;53.10;;;;;;5002657;28;20561;-66
2023/08/25 11:16:40;;;;;;;2.37;2.27;;;24.40;53.00;;;;;;4997641;28;20449;-63
2023/08/25 11:19:09;;;;;;;2.47;2.17;;;24.50;53.10;;;;;;4992602;28;20476;-63
2023/08/25 11:21:35;;;;;;;2.30;2.20;;;24.50;53.10;;;;;;4997551;28;20467;-65
2023/08/25 11:24:01;;;;;;;2.33;2.13;;;24.40;53.00;;;;;;4988858;28;20549;-62
2023/08/25 11:26:26;;;;;;;2.20;2.10;;;24.40;53.00;;;;;;4996660;28;20238;-65
2023/08/25 11:28:53;;;;;;;2.43;2.23;;;24.50;53.20;;;;;;4989561;28;20211;-63
2023/08/25 11:31:23;;;;;;;2.97;2.77;;;24.40;53.10;;;;;;4996139;28;20238;-64
2023/08/25 11:33:52;;;;;;;2.10;1.97;;;24.40;53.10;;;;;;4996548;28;20467;-64
2023/08/25 11:36:17;;;;;;;1.90;1.80;;;24.50;53.20;;;;;;4983889;28;20628;-65
2023/08/25 11:38:48;;;;;;;2.60;2.50;;;24.40;53.00;;;;;;4995557;28;22371;-65
2023/08/25 11:41:14;;;;;;;2.53;2.17;;;24.50;53.10;;;;;;4986552;28;20692;-65
2023/08/25 11:43:40;;;;;;;2.03;1.93;;;24.50;53.10;;;;;;4993472;28;20464;-65
2023/08/25 11:46:06;;;;;;;3.80;2.40;;;24.50;53.10;;;;;;4995520;28;22597;-64
2023/08/25 11:48:36;;;;;;;2.10;2.00;;;24.50;53.00;;;;;;5000404;28;20911;-64
2023/08/25 11:51:02;;;;;;;2.23;2.13;;;24.50;53.00;;;;;;4996739;28;20460;-65
2023/08/25 11:53:28;;;;;;;2.33;1.80;;;24.50;53.00;;;;;;4990459;28;20461;-64
2023/08/25 11:55:59;;;;;;;2.70;2.10;;;24.50;53.00;;;;;;4989923;28;20471;-64
2023/08/25 11:58:34;;;;;;;2.37;2.17;;;24.50;53.00;;;;;;4998431;28;20350;-65
2023/08/25 12:01:11;;;;;;;2.60;2.40;;;24.50;53.00;;;;;;4995206;28;20523;-64
2023/08/25 12:03:38;;;;;;;2.27;2.03;;;24.50;52.90;;;;;;5002835;28;20443;-63
2023/08/25 12:06:08;;;;;;;4.10;2.43;;;24.50;53.00;;;;;;4992671;28;20469;-66
2023/08/25 12:08:34;;;;;;;2.43;2.23;;;24.50;53.00;;;;;;4992761;28;20453;-65
2023/08/25 12:11:00;;;;;;;2.00;1.90;;;24.50;53.10;;;;;;4995694;28;20456;-63
2023/08/25 12:13:31;;;;;;;2.00;1.90;;;24.50;53.00;;;;;;4996348;28;20464;-63
2023/08/25 12:15:58;;;;;;;1.87;1.77;;;24.50;53.00;;;;;;5008207;28;20467;-63
2023/08/25 12:18:34;;;;;;;2.10;2.00;;;24.50;53.10;;;;;;5007387;28;20467;-64
2023/08/25 12:21:03;;;;;;;2.37;2.27;;;24.50;53.00;;;;;;5005429;28;20458;-66
2023/08/25 12:23:37;;;;;;;2.07;1.97;;;24.50;53.00;;;;;;4989813;28;20469;-66
2023/08/25 12:26:09;;;;;;;2.43;2.33;;;24.50;53.00;;;;;;4985507;28;20552;-64
2023/08/25 12:28:35;;;;;;;2.30;2.20;;;24.50;53.40;;;;;;4990721;28;20461;-65
2023/08/25 12:31:01;;;;;;;2.20;2.10;;;24.50;53.10;;;;;;4991345;28;20467;-66
2023/08/25 12:33:28;;;;;;;3.00;2.40;;;24.50;53.10;;;;;;4984966;28;20333;-66
2023/08/25 12:35:53;;;;;;;1.93;1.83;;;24.50;53.10;;;;;;4998130;28;20893;-65
2023/08/25 12:38:19;;;;;;;2.10;1.90;;;24.50;53.10;;;;;;5002236;28;20453;-65
2023/08/25 12:40:45;;;;;;;2.40;2.30;;;24.50;53.20;;;;;;5003439;28;20584;-65
2023/08/25 12:43:10;;;;;;;2.20;2.00;;;24.50;53.20;;;;;;5007596;28;20228;-65
2023/08/25 12:45:36;;;;;;;1.83;1.73;;;24.50;53.20;;;;;;5011877;28;20262;-65
2023/08/25 12:48:02;;;;;;;2.37;2.17;;;24.50;53.20;;;;;;5002612;28;20370;-66
2023/08/25 12:50:29;;;;;;;2.47;2.30;;;24.50;53.20;;;;;;4998326;28;20215;-65
2023/08/25 12:52:54;;;;;;;2.00;1.90;;;24.50;53.20;;;;;;5001649;28;20309;-65
2023/08/25 12:55:20;;;;;;;2.10;2.00;;;24.50;53.20;;;;;;5005053;28;20881;-65
2023/08/25 12:57:45;;;;;;;2.10;2.00;;;24.50;53.20;;;;;;5008620;28;20715;-65
2023/08/25 13:00:12;;;;;;;2.20;2.10;;;24.50;53.30;;;;;;5005991;28;20222;-65
2023/08/25 13:02:41;;;;;;;2.60;2.40;;;24.50;53.30;;;;;;5005110;28;20230;-66